KLSV

Nellis AFB Airport

Las Vegas, Nevada, USA
METAR KLSV 182258Z AUTO 22009KT 10SM CLR 40/12 A2987 RMK AO2 SLP085 T04040123
Observed Flight Rules
Aug-18 @ 22:58 UTC (48 minutes ago) Visual Flight Rules
Wind Visibility Clouds
220° at 9 knots 10 miles
  • Clear skies
Temperatures Readings
Current 40°C / 104°F
Dewpoint 12°C / 54°F
Humidity 19%
Altimeter 29.87" Hg
Pressure 1008.5 hPa
Elevation 570
METAR KLSV 182258Z AUTO 22009KT 10SM CLR 40/12 A2987 RMK AO2 SLP085 T04040123
Observed Flight Rules
Aug-18 @ 22:58 UTC
(48 minutes ago)
VFR
Wind Visibility
220° at 9 knots 10 miles
Clouds
  • Clear skies
Temperature Dewpoint
40°C / 104°F 12°C / 54°F
Humidity Altimeter Pressure
19% 29.87" Hg 1008.5 hPa